Time;durP1;ratioP1;P1;durP2;ratioP2;P2;SDS_P1;SDS_P2;PMS_P1;PMS_P2;Temp;Humidity;BMP_temperature;BMP_pressure;BME280_temperature;BME280_humidity;BME280_pressure;Samples;Min_cycle;Max_cycle;Signal;HPM_P1;HPM_P2
2024/01/30 00:01:58;;;;;;;9.97;6.73;;;;;;;2.33;100.00;99512.22;5052130;28;20248;-77
2024/01/30 00:04:25;;;;;;;9.53;6.83;;;;;;;2.29;100.00;99516.63;5051945;28;20238;-77
2024/01/30 00:06:52;;;;;;;13.30;7.50;;;;;;;2.28;100.00;99512.25;5051710;28;20205;-79
2024/01/30 00:09:19;;;;;;;12.63;7.67;;;;;;;2.27;100.00;99513.16;5052060;28;20216;-77
2024/01/30 00:11:46;;;;;;;14.27;7.83;;;;;;;2.28;100.00;99520.09;5051697;28;20265;-77
2024/01/30 00:14:12;;;;;;;14.03;8.87;;;;;;;2.25;100.00;99520.16;5051686;28;20214;-77
2024/01/30 00:16:39;;;;;;;11.90;7.80;;;;;;;2.25;100.00;99525.38;5051503;28;20251;-78
2024/01/30 00:19:08;;;;;;;13.93;8.90;;;;;;;2.24;100.00;99518.44;5055801;28;20710;-78
2024/01/30 00:21:34;;;;;;;16.70;9.60;;;;;;;2.26;100.00;99519.25;5055884;28;20306;-78
2024/01/30 00:24:01;;;;;;;13.40;9.27;;;;;;;2.27;100.00;99513.16;5056085;28;20196;-78
2024/01/30 00:26:27;;;;;;;15.53;9.87;;;;;;;2.34;100.00;99520.00;5055170;28;20213;-78
2024/01/30 00:28:54;;;;;;;22.67;9.03;;;;;;;2.28;100.00;99512.25;5055931;28;20204;-78
2024/01/30 00:31:20;;;;;;;17.20;9.90;;;;;;;2.26;100.00;99521.88;5055240;28;20237;-78
2024/01/30 00:33:50;;;;;;;14.50;9.50;;;;;;;2.22;100.00;99520.22;5051709;28;20209;-77
2024/01/30 00:36:18;;;;;;;15.43;9.77;;;;;;;2.22;100.00;99517.59;5051424;28;20237;-77
2024/01/30 00:38:44;;;;;;;15.40;9.20;;;;;;;2.26;100.00;99526.25;5051066;28;20209;-77
2024/01/30 00:41:11;;;;;;;19.20;9.93;;;;;;;2.22;100.00;99520.22;5051579;28;20219;-77
2024/01/30 00:43:38;;;;;;;19.03;10.43;;;;;;;2.27;100.00;99517.53;5051435;28;20210;-79
2024/01/30 00:46:07;;;;;;;15.60;10.00;;;;;;;2.34;100.00;99514.78;5051200;28;20233;-77
2024/01/30 00:48:34;;;;;;;15.50;9.37;;;;;;;2.31;100.00;99520.06;5052751;28;20205;-78
2024/01/30 00:51:00;;;;;;;15.90;9.17;;;;;;;2.36;100.00;99528.69;5052217;28;20212;-78
2024/01/30 00:53:28;;;;;;;14.23;9.07;;;;;;;2.37;100.00;99525.19;5051531;28;20217;-79
2024/01/30 00:55:57;;;;;;;14.50;9.63;;;;;;;2.38;100.00;99526.91;5051865;28;20206;-79
2024/01/30 00:58:23;;;;;;;14.10;8.73;;;;;;;2.43;100.00;99525.09;5051183;28;20240;-79
2024/01/30 01:00:50;;;;;;;12.40;8.83;;;;;;;2.38;100.00;99523.47;5051106;28;20220;-77
2024/01/30 01:03:16;;;;;;;14.57;9.07;;;;;;;2.29;100.00;99526.19;5051229;28;20237;-77
2024/01/30 01:05:43;;;;;;;13.63;10.00;;;;;;;2.26;100.00;99532.31;5051490;28;20225;-77
2024/01/30 01:08:10;;;;;;;16.33;10.07;;;;;;;2.26;100.00;99523.63;5050663;28;20212;-77
2024/01/30 01:10:38;;;;;;;14.63;9.97;;;;;;;2.24;100.00;99528.88;5050205;28;20221;-77
2024/01/30 01:13:04;;;;;;;18.83;9.43;;;;;;;2.17;100.00;99532.44;5051163;28;20229;-79
2024/01/30 01:15:31;;;;;;;13.47;9.47;;;;;;;2.14;100.00;99526.41;5050974;28;20213;-77
2024/01/30 01:17:58;;;;;;;15.63;9.40;;;;;;;2.08;100.00;99532.56;5049870;28;20208;-77
2024/01/30 01:20:24;;;;;;;15.20;9.47;;;;;;;2.07;100.00;99525.63;5051028;28;20453;-77
2024/01/30 01:22:52;;;;;;;15.37;8.80;;;;;;;2.06;100.00;99529.13;5050752;28;20734;-77
2024/01/30 01:25:18;;;;;;;14.77;9.60;;;;;;;2.07;100.00;99529.97;5050924;28;20228;-77
2024/01/30 01:27:51;;;;;;;11.77;8.70;;;;;;;2.01;100.00;99525.69;5051039;28;20206;-77
2024/01/30 01:30:22;;;;;;;15.27;9.37;;;;;;;2.00;100.00;99531.81;5051480;28;20218;-78
2024/01/30 01:32:54;;;;;;;16.13;9.60;;;;;;;2.01;100.00;99525.69;5051950;28;20229;-77
2024/01/30 01:35:21;;;;;;;15.70;9.80;;;;;;;2.03;100.00;99523.94;5051265;28;20717;-78
2024/01/30 01:37:54;;;;;;;13.50;9.03;;;;;;;2.03;100.00;99521.31;5050406;28;20214;-77
2024/01/30 01:40:21;;;;;;;12.23;8.07;;;;;;;2.04;100.00;99522.19;5050803;28;20208;-77
2024/01/30 01:42:50;;;;;;;14.60;9.60;;;;;;;2.07;100.00;99525.63;5051056;28;20235;-77
2024/01/30 01:45:16;;;;;;;14.60;8.93;;;;;;;2.12;100.00;99523.81;5050453;28;20241;-77
2024/01/30 01:47:46;;;;;;;15.53;8.87;;;;;;;2.12;100.00;99526.44;5050415;28;20209;-77
2024/01/30 01:50:13;;;;;;;13.63;8.87;;;;;;;2.07;100.00;99520.41;5050676;28;20740;-77
2024/01/30 01:52:42;;;;;;;15.83;9.27;;;;;;;2.00;100.00;99523.09;5050777;28;20241;-77
2024/01/30 01:55:09;;;;;;;14.90;9.17;;;;;;;1.93;100.00;99532.78;5051010;28;20209;-77
2024/01/30 01:57:36;;;;;;;14.00;9.23;;;;;;;1.86;100.00;99525.91;5050066;28;20635;-77
2024/01/30 02:00:04;;;;;;;19.17;10.43;;;;;;;1.82;100.00;99525.94;5050166;28;20668;-77
2024/01/30 02:02:32;;;;;;;15.00;8.80;;;;;;;1.79;100.00;99533.81;5050493;28;20230;-77
2024/01/30 02:04:59;;;;;;;17.57;9.93;;;;;;;1.76;100.00;99532.13;5050334;28;20704;-77
2024/01/30 02:07:26;;;;;;;13.50;9.20;;;;;;;1.77;100.00;99527.78;5050006;28;20447;-77
2024/01/30 02:09:52;;;;;;;19.30;10.10;;;;;;;1.75;100.00;99530.41;5050584;28;20208;-77
2024/01/30 02:12:19;;;;;;;12.93;9.43;;;;;;;1.74;100.00;99526.06;5050270;28;20241;-77
2024/01/30 02:14:46;;;;;;;15.20;9.43;;;;;;;1.71;100.00;99523.47;5050723;28;20609;-77
2024/01/30 02:17:14;;;;;;;15.63;9.63;;;;;;;1.71;100.00;99536.50;5051372;28;20241;-78
2024/01/30 02:19:40;;;;;;;14.83;9.57;;;;;;;1.72;100.00;99535.63;5053334;28;20212;-78
2024/01/30 02:22:09;;;;;;;18.57;10.13;;;;;;;1.72;100.00;99532.19;5054147;28;20225;-77
2024/01/30 02:24:35;;;;;;;15.67;9.97;;;;;;;1.70;100.00;99532.19;5057322;28;20210;-78
2024/01/30 02:27:02;;;;;;;16.00;9.00;;;;;;;1.67;100.00;99534.81;5056932;28;20218;-78
2024/01/30 02:29:28;;;;;;;14.60;9.63;;;;;;;1.63;100.00;99535.75;5056448;28;20593;-77
2024/01/30 02:31:55;;;;;;;13.97;10.03;;;;;;;1.65;100.00;99533.13;5056924;28;20242;-78
2024/01/30 02:34:21;;;;;;;15.60;10.57;;;;;;;1.67;100.00;99529.59;5056463;28;20216;-78
2024/01/30 02:36:48;;;;;;;16.37;10.50;;;;;;;1.68;100.00;99530.47;5056023;28;20212;-78
2024/01/30 02:39:15;;;;;;;13.73;9.53;;;;;;;1.65;100.00;99526.16;5056661;28;20623;-77
2024/01/30 02:41:44;;;;;;;12.87;8.97;;;;;;;1.62;100.00;99531.44;5056696;28;20244;-78
2024/01/30 02:44:10;;;;;;;16.07;9.70;;;;;;;1.63;100.00;99529.66;5057202;28;20219;-78
2024/01/30 02:46:37;;;;;;;14.87;9.67;;;;;;;1.64;100.00;99534.88;5056713;28;20236;-77
2024/01/30 02:49:03;;;;;;;12.33;9.33;;;;;;;1.67;100.00;99534.81;5056987;28;20212;-78
2024/01/30 02:51:30;;;;;;;14.97;9.80;;;;;;;1.71;100.00;99531.31;5056938;28;20604;-77
2024/01/30 02:53:58;;;;;;;14.30;9.43;;;;;;;1.75;100.00;99527.78;5057232;28;20322;-78
2024/01/30 02:56:26;;;;;;;14.20;8.77;;;;;;;1.81;100.00;99522.50;5056461;28;20300;-77
2024/01/30 02:58:52;;;;;;;11.77;8.87;;;;;;;1.82;100.00;99526.81;5056065;28;20205;-78
2024/01/30 03:01:20;;;;;;;11.93;8.37;;;;;;;1.82;100.00;99519.00;5056232;28;20239;-77
2024/01/30 03:03:47;;;;;;;13.67;8.93;;;;;;;1.88;100.00;99518.06;5056417;28;20635;-78
2024/01/30 03:06:15;;;;;;;12.07;8.00;;;;;;;1.91;100.00;99521.47;5056667;28;20234;-77
2024/01/30 03:08:41;;;;;;;13.40;8.13;;;;;;;1.98;100.00;99520.53;5055968;28;20595;-78
2024/01/30 03:11:07;;;;;;;12.40;8.40;;;;;;;1.92;100.00;99515.41;5056639;28;20212;-77
2024/01/30 03:13:35;;;;;;;11.43;7.97;;;;;;;1.91;100.00;99518.88;5056062;28;20208;-77
2024/01/30 03:16:02;;;;;;;13.43;8.43;;;;;;;1.89;100.00;99520.66;5056381;28;20217;-77
2024/01/30 03:18:29;;;;;;;12.50;8.60;;;;;;;1.85;100.00;99513.72;5055787;28;20273;-78
2024/01/30 03:20:55;;;;;;;14.00;8.60;;;;;;;1.86;100.00;99515.50;5056257;28;20221;-77
2024/01/30 03:23:22;;;;;;;11.90;7.53;;;;;;;1.84;100.00;99525.06;5056360;28;20634;-77
2024/01/30 03:25:48;;;;;;;12.63;8.10;;;;;;;1.80;100.00;99526.00;5056227;28;20253;-78
2024/01/30 03:28:14;;;;;;;12.47;8.00;;;;;;;1.79;100.00;99528.59;5056059;28;20217;-77
2024/01/30 03:30:42;;;;;;;14.77;8.60;;;;;;;1.74;100.00;99525.19;5056147;28;20220;-78
2024/01/30 03:33:09;;;;;;;12.67;7.90;;;;;;;1.70;100.00;99524.38;5056310;28;20265;-77
2024/01/30 03:35:38;;;;;;;10.90;7.50;;;;;;;1.69;100.00;99526.97;5055471;28;20209;-77
2024/01/30 03:38:04;;;;;;;13.47;8.07;;;;;;;1.69;100.00;99527.84;5056136;28;20209;-77
2024/01/30 03:40:31;;;;;;;11.93;8.00;;;;;;;1.74;100.00;99522.59;5056662;28;20220;-78
2024/01/30 03:42:57;;;;;;;12.03;7.97;;;;;;;1.71;100.00;99526.09;5056119;28;20236;-78
2024/01/30 03:45:24;;;;;;;11.83;7.60;;;;;;;1.67;100.00;99532.22;5055556;28;20700;-77
2024/01/30 03:47:52;;;;;;;10.90;7.80;;;;;;;1.64;100.00;99531.38;5055134;28;20209;-78
2024/01/30 03:50:18;;;;;;;10.97;7.53;;;;;;;1.59;100.00;99536.66;5055705;28;20213;-77
2024/01/30 03:52:45;;;;;;;11.07;7.40;;;;;;;1.50;100.00;99531.56;5055810;28;20259;-78
2024/01/30 03:55:11;;;;;;;11.37;7.80;;;;;;;1.42;100.00;99524.72;5055809;28;20213;-77
2024/01/30 03:57:38;;;;;;;14.37;7.63;;;;;;;1.40;100.00;99527.31;5055197;28;20566;-77
2024/01/30 04:00:05;;;;;;;13.53;8.80;;;;;;;1.39;100.00;99536.03;5054387;28;20295;-77
2024/01/30 04:02:32;;;;;;;15.90;8.90;;;;;;;1.34;100.00;99530.00;5052034;28;20263;-77
2024/01/30 04:05:00;;;;;;;11.43;7.93;;;;;;;1.34;100.00;99540.41;5052036;28;20583;-77
2024/01/30 04:07:26;;;;;;;11.47;8.27;;;;;;;1.35;100.00;99536.91;5051603;28;20239;-77
2024/01/30 04:09:53;;;;;;;12.27;8.10;;;;;;;1.34;100.00;99534.31;5052107;28;20209;-77
2024/01/30 04:12:19;;;;;;;11.37;8.37;;;;;;;1.36;100.00;99538.63;5051821;28;20236;-77
2024/01/30 04:14:46;;;;;;;13.23;8.37;;;;;;;1.30;100.00;99536.09;5052088;28;20216;-77
2024/01/30 04:17:12;;;;;;;15.07;8.10;;;;;;;1.28;100.00;99539.63;5051274;28;20292;-77
2024/01/30 04:19:39;;;;;;;13.57;8.70;;;;;;;1.25;100.00;99532.72;5052086;28;20204;-77
2024/01/30 04:22:07;;;;;;;12.57;8.73;;;;;;;1.25;100.00;99527.50;5051945;28;20301;-77
2024/01/30 04:24:33;;;;;;;14.60;8.57;;;;;;;1.26;100.00;99539.63;5051610;28;20210;-77
2024/01/30 04:27:00;;;;;;;14.23;8.70;;;;;;;1.27;100.00;99523.13;5051151;28;20703;-78
2024/01/30 04:29:26;;;;;;;13.60;8.03;;;;;;;1.20;100.00;99518.00;5052396;28;20596;-77
2024/01/30 04:31:53;;;;;;;12.23;8.30;;;;;;;1.11;100.00;99523.31;5051998;28;20234;-78
2024/01/30 04:34:19;;;;;;;11.20;7.37;;;;;;;1.04;100.00;99519.88;5052877;28;20208;-79
2024/01/30 04:36:46;;;;;;;11.93;8.33;;;;;;;1.08;100.00;99520.72;5052401;28;20216;-79
2024/01/30 04:39:13;;;;;;;15.00;9.70;;;;;;;1.09;100.00;99518.09;5054151;28;20348;-79
2024/01/30 04:41:40;;;;;;;11.43;8.80;;;;;;;1.10;100.00;99519.81;5054706;28;20235;-77
2024/01/30 04:44:06;;;;;;;14.43;8.23;;;;;;;1.09;100.00;99517.22;5053711;28;20206;-78
2024/01/30 04:46:34;;;;;;;15.67;9.37;;;;;;;1.13;100.00;99513.72;5051269;28;20617;-77
2024/01/30 04:49:00;;;;;;;13.27;7.90;;;;;;;1.07;100.00;99517.25;5051679;28;20210;-77
2024/01/30 04:51:27;;;;;;;13.17;8.30;;;;;;;1.03;100.00;99523.38;5051335;28;20237;-77
2024/01/30 04:53:53;;;;;;;12.60;8.07;;;;;;;1.03;100.00;99523.38;5051248;28;20223;-77
2024/01/30 04:56:21;;;;;;;13.40;8.77;;;;;;;1.04;100.00;99524.25;5051084;28;20703;-77
2024/01/30 04:58:48;;;;;;;12.67;8.70;;;;;;;1.07;100.00;99524.19;5050525;28;20209;-77
2024/01/30 05:01:16;;;;;;;13.03;8.50;;;;;;;1.08;100.00;99526.78;5050935;28;20228;-77
2024/01/30 05:03:42;;;;;;;12.30;8.10;;;;;;;1.09;100.00;99528.53;5051945;28;20593;-79
2024/01/30 05:06:09;;;;;;;14.43;9.33;;;;;;;1.13;100.00;99529.34;5051703;28;20234;-78
2024/01/30 05:08:36;;;;;;;12.30;8.20;;;;;;;1.10;100.00;99534.59;5052263;28;20561;-78
2024/01/30 05:11:03;;;;;;;11.13;7.57;;;;;;;1.04;100.00;99522.50;5052186;28;20211;-78
2024/01/30 05:13:31;;;;;;;14.20;8.20;;;;;;;1.03;100.00;99531.19;5053836;28;20307;-78
2024/01/30 05:15:58;;;;;;;13.50;8.03;;;;;;;1.02;100.00;99529.47;5053957;28;20215;-78
2024/01/30 05:18:24;;;;;;;14.93;9.03;;;;;;;1.01;100.00;99540.75;5053428;28;20208;-79
2024/01/30 05:20:51;;;;;;;12.73;8.43;;;;;;;1.03;100.00;99533.78;5055071;28;20617;-78
2024/01/30 05:23:17;;;;;;;15.33;8.67;;;;;;;1.04;100.00;99530.28;5058828;28;20229;-78
2024/01/30 05:25:44;;;;;;;16.83;9.13;;;;;;;1.05;100.00;99536.38;5057920;28;20292;-78
2024/01/30 05:28:10;;;;;;;13.03;8.87;;;;;;;1.07;100.00;99529.41;5054365;28;20766;-78
2024/01/30 05:30:38;;;;;;;15.00;8.83;;;;;;;1.10;100.00;99538.03;5058036;28;20218;-79
2024/01/30 05:33:05;;;;;;;12.60;8.30;;;;;;;1.07;100.00;99535.50;5059510;28;20825;-78
2024/01/30 05:35:31;;;;;;;12.33;8.27;;;;;;;1.14;100.00;99537.16;5058201;28;20218;-79
2024/01/30 05:37:58;;;;;;;11.17;7.83;;;;;;;1.15;100.00;99533.66;5051924;28;20697;-77
2024/01/30 05:40:24;;;;;;;11.23;7.43;;;;;;;1.16;100.00;99535.38;5051373;28;20559;-79
2024/01/30 05:42:51;;;;;;;12.00;8.43;;;;;;;1.17;100.00;99542.31;5051360;28;20330;-79
2024/01/30 05:45:18;;;;;;;12.03;8.40;;;;;;;1.21;100.00;99544.03;5052030;28;20219;-79
2024/01/30 05:47:45;;;;;;;12.93;8.20;;;;;;;1.21;100.00;99544.03;5050460;28;20229;-78
2024/01/30 05:50:12;;;;;;;11.53;7.80;;;;;;;1.16;100.00;99548.41;5051172;28;20204;-77
2024/01/30 05:52:38;;;;;;;13.03;8.30;;;;;;;1.14;100.00;99544.97;5050850;28;20232;-77
2024/01/30 05:55:05;;;;;;;13.17;8.53;;;;;;;1.12;100.00;99546.69;5050993;28;20208;-77
2024/01/30 05:57:32;;;;;;;12.33;8.30;;;;;;;1.14;100.00;99546.69;5052104;28;20228;-78
2024/01/30 05:59:58;;;;;;;10.90;7.43;;;;;;;1.16;100.00;99550.16;5055739;28;20205;-79
2024/01/30 06:02:25;;;;;;;12.30;8.87;;;;;;;1.20;100.00;99552.72;5058845;28;20245;-78
2024/01/30 06:04:53;;;;;;;13.40;8.57;;;;;;;1.22;100.00;99545.75;5062665;28;20214;-78
2024/01/30 06:07:19;;;;;;;12.60;8.23;;;;;;;1.17;100.00;99552.72;5061927;28;20229;-77
2024/01/30 06:09:46;;;;;;;12.27;8.40;;;;;;;1.10;100.00;99552.81;5061720;28;20212;-77
2024/01/30 06:12:13;;;;;;;11.43;7.97;;;;;;;1.08;100.00;99547.63;5058591;28;20227;-77
2024/01/30 06:14:39;;;;;;;12.57;8.37;;;;;;;1.00;100.00;99544.19;5054287;28;20214;-77
2024/01/30 06:17:06;;;;;;;11.63;8.53;;;;;;;1.06;100.00;99543.31;5054201;28;20668;-78
2024/01/30 06:19:32;;;;;;;12.10;8.00;;;;;;;1.00;100.00;99544.19;5054263;28;20220;-78
2024/01/30 06:22:00;;;;;;;11.93;7.67;;;;;;;0.93;100.00;99547.75;5054052;28;20231;-77
2024/01/30 06:24:27;;;;;;;13.07;8.30;;;;;;;0.91;100.00;99541.69;5054202;28;20694;-77
2024/01/30 06:26:54;;;;;;;11.80;8.10;;;;;;;0.88;100.00;99541.75;5053577;28;20315;-77
2024/01/30 06:29:20;;;;;;;11.93;8.93;;;;;;;0.88;100.00;99544.34;5053846;28;20221;-77
2024/01/30 06:31:47;;;;;;;11.23;8.27;;;;;;;0.88;100.00;99544.34;5053749;28;20225;-77
2024/01/30 06:34:13;;;;;;;11.53;7.50;;;;;;;0.89;100.00;99540.88;5053836;28;20223;-79
2024/01/30 06:36:40;;;;;;;11.23;8.13;;;;;;;0.87;100.00;99555.59;5053212;28;20594;-77
2024/01/30 06:39:08;;;;;;;13.13;8.63;;;;;;;0.86;100.00;99551.28;5053808;28;20213;-77
2024/01/30 06:41:35;;;;;;;13.10;8.07;;;;;;;0.87;100.00;99553.00;5053707;28;20234;-77
2024/01/30 06:44:03;;;;;;;13.87;8.83;;;;;;;0.87;100.00;99550.41;5053656;28;20220;-77
2024/01/30 06:46:30;;;;;;;13.60;8.67;;;;;;;0.85;100.00;99551.28;5053179;28;20281;-78
2024/01/30 06:48:56;;;;;;;13.27;9.03;;;;;;;0.86;100.00;99553.03;5057842;28;20213;-78
2024/01/30 06:51:23;;;;;;;13.63;8.50;;;;;;;0.80;100.00;99546.13;5057661;28;20229;-78
2024/01/30 06:53:49;;;;;;;13.73;8.13;;;;;;;0.79;100.00;99554.81;5056759;28;20212;-77
2024/01/30 06:56:20;;;;;;;12.07;8.73;;;;;;;0.77;100.00;99553.09;5053789;28;20207;-77
2024/01/30 06:58:47;;;;;;;12.67;8.47;;;;;;;0.77;100.00;99561.78;5054232;28;20219;-78
2024/01/30 07:01:13;;;;;;;17.10;7.87;;;;;;;0.76;100.00;99565.25;5057854;28;20228;-77
2024/01/30 07:03:40;;;;;;;15.40;8.77;;;;;;;0.79;100.00;99564.34;5056759;28;20212;-78
2024/01/30 07:06:07;;;;;;;11.57;8.60;;;;;;;0.80;100.00;99566.94;5056892;28;20240;-77
2024/01/30 07:08:33;;;;;;;13.87;8.30;;;;;;;0.82;100.00;99574.75;5055976;28;20208;-78
2024/01/30 07:11:00;;;;;;;10.83;7.47;;;;;;;0.83;100.00;99572.16;5053288;28;20220;-78
2024/01/30 07:13:28;;;;;;;13.53;8.50;;;;;;;0.84;100.00;99579.06;5053308;28;20208;-77
2024/01/30 07:15:55;;;;;;;11.17;7.87;;;;;;;0.86;100.00;99572.09;5052998;28;20241;-77
2024/01/30 07:18:21;;;;;;;13.07;8.10;;;;;;;0.91;100.00;99572.94;5053510;28;20249;-79
2024/01/30 07:20:49;;;;;;;12.80;8.97;;;;;;;0.93;100.00;99573.78;5053775;28;20216;-79
2024/01/30 07:23:17;;;;;;;13.60;8.07;;;;;;;0.99;100.00;99578.09;5053532;28;20239;-78
2024/01/30 07:25:44;;;;;;;11.57;8.23;;;;;;;1.01;100.00;99574.59;5053913;28;20213;-78
2024/01/30 07:28:12;;;;;;;12.43;8.43;;;;;;;1.05;100.00;99573.66;5053505;28;20647;-78
2024/01/30 07:30:39;;;;;;;12.87;8.10;;;;;;;1.02;100.00;99578.91;5054060;28;20218;-78
2024/01/30 07:33:06;;;;;;;15.50;8.50;;;;;;;1.05;100.00;99568.47;5053486;28;20226;-77
2024/01/30 07:35:32;;;;;;;13.13;8.77;;;;;;;1.11;100.00;99571.00;5052879;28;20204;-79
2024/01/30 07:38:01;;;;;;;14.63;8.63;;;;;;;1.11;100.00;99573.63;5052929;28;20209;-77
2024/01/30 07:40:28;;;;;;;13.43;8.67;;;;;;;1.14;100.00;99568.41;5053864;28;20244;-77
2024/01/30 07:42:55;;;;;;;12.40;8.50;;;;;;;1.10;100.00;99571.91;5053159;28;20229;-78
2024/01/30 07:45:24;;;;;;;13.67;8.10;;;;;;;1.14;100.00;99571.00;5052557;28;20217;-77
2024/01/30 07:47:52;;;;;;;13.10;8.63;;;;;;;1.17;100.00;99568.34;5053115;28;20336;-77
2024/01/30 07:50:18;;;;;;;14.17;9.37;;;;;;;1.21;100.00;99575.28;5053428;28;20207;-77
2024/01/30 07:52:45;;;;;;;13.10;9.63;;;;;;;1.31;100.00;99582.13;5052676;28;20229;-78
2024/01/30 07:55:12;;;;;;;15.27;8.90;;;;;;;1.40;100.00;99571.59;5052575;28;20207;-77
2024/01/30 07:57:39;;;;;;;13.17;8.93;;;;;;;1.49;100.00;99575.84;5052264;28;20200;-77
2024/01/30 08:00:07;;;;;;;15.13;9.13;;;;;;;1.53;100.00;99580.16;5052880;28;20212;-79
2024/01/30 08:02:36;;;;;;;12.60;8.67;;;;;;;1.58;100.00;99574.00;5053121;28;20228;-79
2024/01/30 08:05:04;;;;;;;14.20;8.97;;;;;;;1.64;100.00;99581.78;5053302;28;20208;-77
2024/01/30 08:07:31;;;;;;;11.97;8.57;;;;;;;1.70;100.00;99581.69;5053450;28;20738;-78
2024/01/30 08:09:57;;;;;;;15.03;9.63;;;;;;;1.74;100.00;99580.78;5056259;28;20228;-78
2024/01/30 08:12:24;;;;;;;14.53;9.20;;;;;;;1.80;100.00;99575.50;5055456;28;20224;-79
2024/01/30 08:14:50;;;;;;;15.37;9.17;;;;;;;1.85;100.00;99576.31;5053808;28;20212;-79
2024/01/30 08:17:17;;;;;;;11.73;8.33;;;;;;;1.95;100.00;99572.72;5052495;28;20838;-77
2024/01/30 08:19:43;;;;;;;13.93;8.13;;;;;;;2.08;100.00;99578.66;5051875;28;20208;-77
2024/01/30 08:22:12;;;;;;;14.17;8.90;;;;;;;2.27;100.00;99570.53;5052526;28;20243;-78
2024/01/30 08:24:40;;;;;;;13.23;8.20;;;;;;;2.36;100.00;99564.34;5052229;28;20204;-77
2024/01/30 08:27:09;;;;;;;13.23;8.10;;;;;;;2.48;100.00;99570.25;5051690;28;20230;-78
2024/01/30 08:29:35;;;;;;;12.50;7.90;;;;;;;2.62;100.00;99568.31;5052886;28;20235;-77
2024/01/30 08:32:02;;;;;;;12.23;7.60;;;;;;;2.77;100.00;99567.22;5055201;28;20227;-78
2024/01/30 08:34:29;;;;;;;14.00;8.57;;;;;;;2.98;100.00;99570.34;5053242;28;20217;-79
2024/01/30 08:36:55;;;;;;;13.07;8.57;;;;;;;3.02;100.00;99563.31;5053332;28;20209;-80
2024/01/30 08:39:23;;;;;;;13.13;8.17;;;;;;;3.11;100.00;99566.63;5053250;28;20218;-78
2024/01/30 08:41:50;;;;;;;10.83;8.57;;;;;;;3.20;100.00;99566.50;5054571;28;20223;-78
2024/01/30 08:44:17;;;;;;;12.77;8.03;;;;;;;3.31;100.00;99572.38;5052937;28;20205;-79
2024/01/30 08:46:44;;;;;;;13.10;8.27;;;;;;;3.41;100.00;99568.72;5052000;28;20583;-78
2024/01/30 08:49:13;;;;;;;10.73;7.97;;;;;;;3.50;100.00;99565.94;5053048;28;20313;-79
2024/01/30 08:51:39;;;;;;;10.87;7.37;;;;;;;3.61;100.00;99558.72;5052118;28;20568;-77
2024/01/30 08:54:06;;;;;;;10.30;7.20;;;;;;;3.80;100.00;99552.25;5052067;28;20681;-77
2024/01/30 08:56:34;;;;;;;11.13;7.23;;;;;;;3.98;100.00;99551.03;5052204;28;20209;-79
2024/01/30 08:59:00;;;;;;;11.03;7.43;;;;;;;3.98;100.00;99549.28;5049742;28;20213;-78
2024/01/30 09:01:27;;;;;;;10.93;7.60;;;;;;;3.97;100.00;99555.41;5053091;28;20248;-79
2024/01/30 09:03:54;;;;;;;11.60;7.63;;;;;;;3.97;100.00;99558.00;5051340;28;20264;-77
2024/01/30 09:06:20;;;;;;;10.97;7.80;;;;;;;4.01;100.00;99562.31;5050508;28;20224;-77
2024/01/30 09:08:47;;;;;;;9.83;7.60;;;;;;;4.18;100.00;99562.81;5050342;28;20320;-77
2024/01/30 09:11:14;;;;;;;13.52;8.65;;;;;;;4.27;100.00;99567.00;5050946;28;20437;-77
2024/01/30 09:13:43;;;;;;;12.53;8.53;;;;;;;4.17;100.00;99574.16;5049266;28;20604;-77
2024/01/30 09:16:09;;;;;;;11.90;8.53;;;;;;;4.17;100.00;99574.16;5050336;28;20211;-77
2024/01/30 09:18:36;;;;;;;11.13;8.17;;;;;;;4.15;100.00;99575.09;5051476;28;20208;-77
2024/01/30 09:21:02;;;;;;;11.83;8.13;;;;;;;4.19;100.00;99575.00;5050551;28;20206;-76
2024/01/30 09:23:29;;;;;;;12.83;9.13;;;;;;;4.18;100.00;99581.13;5049627;28;20216;-77
2024/01/30 09:25:56;;;;;;;12.50;8.57;;;;;;;4.22;100.00;99582.78;5050070;28;20211;-76
2024/01/30 09:28:22;;;;;;;11.00;8.87;;;;;;;4.15;100.00;99585.56;5049398;28;20229;-77
2024/01/30 09:30:50;;;;;;;12.07;8.80;;;;;;;4.13;100.00;99577.75;5049478;28;20705;-78
2024/01/30 09:33:17;;;;;;;12.63;8.83;;;;;;;4.18;100.00;99586.38;5053379;28;20257;-77
2024/01/30 09:35:43;;;;;;;15.37;9.03;;;;;;;4.23;100.00;99581.88;5052537;28;20227;-77
2024/01/30 09:38:10;;;;;;;13.03;9.00;;;;;;;4.29;100.00;99584.34;5070617;28;20206;-77
2024/01/30 09:40:37;;;;;;;11.57;8.63;;;;;;;4.47;100.00;99589.19;5067130;28;20207;-77
2024/01/30 09:43:04;;;;;;;15.93;9.10;;;;;;;4.67;100.00;99588.75;5074592;28;20220;-78
2024/01/30 09:45:33;;;;;;;11.97;8.33;;;;;;;4.84;100.00;99582.22;5077852;28;20221;-78
2024/01/30 09:48:01;;;;;;;14.83;9.00;;;;;;;4.93;100.00;99579.41;5076565;28;20329;-78
2024/01/30 09:50:28;;;;;;;10.50;7.80;;;;;;;5.05;100.00;99576.50;5077968;28;20211;-78
2024/01/30 09:52:57;;;;;;;11.67;8.50;;;;;;;5.28;100.00;99568.06;5075903;28;20223;-78
2024/01/30 09:55:24;;;;;;;16.17;9.33;;;;;;;5.32;100.00;99569.72;5077300;28;20211;-78
2024/01/30 09:57:51;;;;;;;11.67;8.13;;;;;;;5.40;100.00;99576.47;5077466;28;20211;-78
2024/01/30 10:00:17;;;;;;;11.00;8.80;;;;;;;5.54;100.00;99576.09;5076399;28;20208;-78
2024/01/30 10:02:45;;;;;;;13.70;8.67;;;;;;;5.63;100.00;99587.19;5077481;28;20351;-78
2024/01/30 10:05:20;;;;;;;14.13;9.50;;;;;;;5.82;100.00;99569.25;5077854;28;20213;-78
2024/01/30 10:07:56;;;;;;;13.93;8.60;;;;;;;6.02;100.00;99567.81;5077099;28;20236;-78
2024/01/30 10:10:23;;;;;;;11.50;8.37;;;;;;;6.18;100.00;99566.44;5077268;28;20634;-78
2024/01/30 10:12:50;;;;;;;12.97;9.00;;;;;;;6.35;100.00;99548.44;5078241;28;20617;-78
2024/01/30 10:15:17;;;;;;;12.43;8.23;;;;;;;6.40;100.00;99543.91;5078494;28;20563;-78
2024/01/30 10:17:45;;;;;;;9.33;7.00;;;;;;;6.41;100.00;99545.63;5077904;28;20204;-78
2024/01/30 10:20:13;;;;;;;11.40;8.10;;;;;;;6.53;100.00;99545.25;5077942;28;20217;-78
2024/01/30 10:22:42;;;;;;;12.80;8.30;;;;;;;6.61;100.00;99547.66;5074370;28;20218;-78
2024/01/30 10:25:09;;;;;;;11.43;7.80;;;;;;;6.75;100.00;99546.31;5067038;28;20611;-78
2024/01/30 10:27:35;;;;;;;11.83;7.80;;;;;;;6.76;100.00;99548.03;5058318;28;20235;-78
2024/01/30 10:30:03;;;;;;;9.93;7.33;;;;;;;6.83;100.00;99544.28;5065165;28;20231;-78
2024/01/30 10:32:30;;;;;;;12.40;7.73;;;;;;;6.91;98.94;99542.25;5072173;28;20232;-78
2024/01/30 10:34:56;;;;;;;11.57;8.07;;;;;;;6.98;97.63;99538.56;5076591;28;20546;-78
2024/01/30 10:37:26;;;;;;;10.80;7.77;;;;;;;7.02;98.16;99544.56;5075014;28;20585;-78
2024/01/30 10:39:55;;;;;;;11.47;7.67;;;;;;;7.06;98.43;99536.53;5056878;28;20216;-78
2024/01/30 10:42:28;;;;;;;10.70;7.27;;;;;;;7.11;97.65;99531.09;5062578;28;20601;-78
2024/01/30 10:45:03;;;;;;;9.77;7.50;;;;;;;7.18;97.35;99526.44;5061082;28;20209;-77
2024/01/30 10:47:30;;;;;;;10.93;7.53;;;;;;;7.22;96.86;99511.44;5056094;28;20242;-78
2024/01/30 10:49:57;;;;;;;9.37;7.67;;;;;;;7.28;96.87;99516.50;5063603;28;20208;-78
2024/01/30 10:52:27;;;;;;;11.57;7.93;;;;;;;7.36;96.33;99519.72;5071236;28;20228;-78
2024/01/30 10:54:55;;;;;;;10.83;7.53;;;;;;;7.42;95.81;99514.25;5058921;28;20262;-78
2024/01/30 10:57:24;;;;;;;12.10;7.63;;;;;;;7.46;95.17;99505.31;5058571;28;20684;-78
2024/01/30 10:59:53;;;;;;;13.77;7.80;;;;;;;7.54;94.81;99509.41;5061357;28;20214;-78
2024/01/30 11:02:20;;;;;;;10.47;7.67;;;;;;;7.62;93.86;99503.88;5056119;28;20294;-78
2024/01/30 11:04:48;;;;;;;10.20;7.67;;;;;;;7.71;93.74;99506.19;5058172;28;20212;-78
2024/01/30 11:07:18;;;;;;;10.40;7.87;;;;;;;7.80;92.67;99501.44;5072770;28;20245;-78
2024/01/30 11:10:01;;;;;;;13.20;8.57;;;;;;;7.96;91.56;99496.47;5077321;28;20242;-79
2024/01/30 11:12:28;;;;;;;12.53;8.13;;;;;;;8.08;88.42;99481.06;5070497;28;20250;-78
2024/01/30 11:15:07;;;;;;;12.50;8.13;;;;;;;8.13;87.76;99484.38;5072770;28;20209;-79
2024/01/30 11:17:43;;;;;;;10.87;7.63;;;;;;;8.15;87.44;99486.97;5068093;28;20213;-77
2024/01/30 11:20:11;;;;;;;12.50;7.70;;;;;;;8.16;88.05;99489.53;5051810;28;20218;-78
2024/01/30 11:22:38;;;;;;;11.07;7.80;;;;;;;8.24;87.92;99486.63;5053755;28;20222;-78
2024/01/30 11:25:07;;;;;;;10.60;7.47;;;;;;;8.29;87.17;99479.41;5056396;28;20214;-78
2024/01/30 11:27:34;;;;;;;12.47;8.27;;;;;;;8.34;86.61;99482.72;5055749;28;20304;-78